Latest Weather Observations for Kingaroy

IDQ60801

Issued at 8:02 pm EST Friday 27 March 2015 (issued every 30 minutes, with the page automatically refreshed every 10 minutes)

About weather observations | Map of weather stations | Latest weather observations for QLD | Other Formats
Station Details ID: 040922 Name: KINGAROY AIRPORT Lat: -26.57 Lon: 151.84 Height: 433.67 m
Data from the previous 72 hours. | See also: Recent months at Kingaroy
Date/Time
EST
Temp
°C
App
Temp
°C
Dew
Point
Rel
Hum
%
Delta-T
°C
Wind Press
QNH
hPa
Press
MSL
hPa
Rain
since 9 am
mm
Dir
 
Spd
km/h
Gust
km/h
Spd
kts
Gust
kts
27/08:00pm 20.8 19.4 12.2 58 4.9 S 11 13 6 7 1020.2 1018.2 0.0
27/07:30pm 21.7 19.9 12.0 54 5.5 S 13 15 7 8 1020.0 1017.9 0.0
27/07:00pm 22.6 20.9 12.3 52 5.9 S 13 15 7 8 1019.5 1017.4 0.0
27/06:30pm 23.1 21.4 12.4 51 6.2 SSE 13 15 7 8 1019.1 1017.0 0.0
27/06:00pm 24.6 22.8 12.2 46 7.2 S 13 13 7 7 1018.5 1016.5 0.0
27/05:30pm 27.5 24.7 11.5 37 9.3 S 17 20 9 11 1018.3 1016.3 0.0
27/05:00pm 29.0 26.5 12.4 36 9.9 SSW 17 26 9 14 1018.0 1015.9 0.0
27/04:30pm 30.0 27.1 11.0 31 11.1 SW 17 20 9 11 1017.8 1015.7 0.0
27/04:00pm 30.0 27.4 12.0 33 10.7 W 17 26 9 14 1017.6 1015.5 0.0
27/03:30pm 29.6 30.0 15.3 41 8.9 SSW 7 15 4 8 1017.5 1015.4 0.0
27/03:00pm 29.7 29.9 15.8 43 8.7 SW 9 19 5 10 1017.6 1015.5 0.0
27/02:30pm 30.7 31.0 15.9 40 9.4 WSW 9 15 5 8 1017.8 1015.7 0.0
27/02:00pm 30.8 30.5 16.4 42 9.2 WSW 13 19 7 10 1018.0 1015.9 0.0
27/01:30pm 29.5 29.7 14.1 39 9.4 SW 6 11 3 6 1018.4 1016.4 0.0
27/01:00pm 29.1 28.6 14.9 42 8.8 SW 11 20 6 11 1019.0 1016.9 0.0
27/12:30pm 28.7 29.1 16.3 47 7.8 SSW 9 15 5 8 1019.5 1017.4 0.0
27/12:00pm 28.4 28.0 15.3 45 8.1 SW 11 19 6 10 1020.1 1018.0 0.0
27/11:30am 27.6 27.7 15.6 48 7.5 SSW 9 17 5 9 1020.5 1018.5 0.0
27/11:00am 27.4 29.2 18.4 58 5.8 WSW 6 11 3 6 1021.0 1019.0 0.0
27/10:30am 26.2 27.5 17.6 59 5.5 WSW 7 11 4 6 1021.4 1019.3 0.0
27/10:00am 26.1 27.9 19.5 67 4.3 W 9 15 5 8 1021.6 1019.5 0.0
27/09:30am 24.1 25.5 19.6 76 2.9 W 11 15 6 8 1021.8 1019.7 0.0
27/09:00am 23.8 26.2 20.9 84 1.9 WNW 9 17 5 9 1021.7 1019.6 4.6
27/08:30am 22.4 24.1 20.1 87 1.5 NW 11 15 6 8 1021.6 1019.5 4.6
27/08:00am 21.8 25.0 20.6 93 0.8 NNW 4 9 2 5 1021.3 1019.2 4.6
27/07:30am 21.2 23.8 20.5 96 0.5 NNW 7 9 4 5 1021.0 1019.0 4.6
27/07:00am 20.5 23.1 20.0 97 0.3 N 6 9 3 5 1020.7 1018.7 4.6
27/06:30am 19.6 22.9 19.1 97 0.3 CALM 0 0 0 0 1020.5 1018.5 4.6
27/06:00am 19.4 22.7 19.1 98 0.2 CALM 0 0 0 0 1020.0 1017.9 4.6
27/05:30am 18.9 21.8 18.2 96 0.4 CALM 0 0 0 0 1019.7 1017.6 4.6
27/05:00am 19.0 22.0 18.5 97 0.3 CALM 0 0 0 0 1019.3 1017.2 4.6
27/04:30am 19.0 21.9 18.2 95 0.5 CALM 0 0 0 0 1019.1 1017.0 4.6
27/04:00am 19.6 21.7 18.9 96 0.4 ENE 6 6 3 3 1019.0 1016.9 4.6
27/03:30am 19.8 23.1 19.1 96 0.4 CALM 0 0 0 0 1019.2 1017.1 4.6
27/03:00am 20.0 23.4 19.3 96 0.4 CALM 0 0 0 0 1019.1 1017.0 4.6
27/02:30am 20.0 22.0 19.2 95 0.5 WNW 7 7 4 4 1019.2 1017.1 4.4
27/02:00am 20.5 24.0 19.5 94 0.6 CALM 0 0 0 0 1019.1 1017.0 4.4
27/01:30am 21.0 24.8 20.2 95 0.5 CALM 0 0 0 0 1019.5 1017.4 4.4
27/01:00am 20.7 24.2 19.5 93 0.8 CALM 0 0 0 0 1019.6 1017.5 4.4
27/12:30am 21.2 24.5 20.0 93 0.8 WNW 2 6 1 3 1019.8 1017.7 4.4
27/12:00am 21.4 24.1 20.2 93 0.8 E 6 7 3 4 1019.9 1017.8 4.4
 
Date/Time
EST
Temp
°C
App
Temp
°C
Dew
Point
Rel
Hum
%
Delta-T
°C
Wind Press
QNH
hPa
Press
MSL
hPa
Rain
since 9 am
mm
Dir
 
Spd
km/h
Gust
km/h
Spd
kts
Gust
kts
26/11:30pm 21.3 23.8 20.3 94 0.7 E 7 9 4 5 1020.1 1018.0 4.4
26/11:00pm 21.7 23.9 20.5 93 0.8 SSW 9 11 5 6 1020.4 1018.4 4.4
26/10:30pm 21.7 25.6 20.3 92 0.9 CALM 0 9 0 5 1020.4 1018.4 4.4
26/10:00pm 22.0 24.6 20.1 89 1.2 WNW 6 13 3 7 1020.7 1018.7 4.4
26/09:30pm 22.1 24.8 20.7 92 0.9 NNE 7 11 4 6 1020.5 1018.5 4.4
26/09:00pm 22.1 25.6 20.4 90 1.1 N 2 6 1 3 1020.7 1018.7 4.4
26/08:30pm 22.3 25.0 20.2 88 1.4 NE 6 9 3 5 1020.4 1018.4 4.4
26/08:00pm 22.1 24.1 20.0 88 1.4 E 9 17 5 9 1020.0 1017.9 4.4
26/07:30pm 22.1 24.8 20.2 89 1.2 ENE 6 11 3 6 1019.9 1017.8 4.2
26/07:00pm 21.8 24.4 20.4 92 0.9 SE 7 11 4 6 1019.1 1017.0 4.2
26/06:30pm 21.5 24.2 20.3 93 0.8 N 6 7 3 4 1018.8 1016.7 4.2
26/06:00pm 21.6 23.5 19.7 89 1.2 NNW 9 13 5 7 1018.5 1016.5 4.2
26/05:30pm 21.5 20.6 19.8 90 1.1 WSW 24 37 13 20 1018.6 1016.6 3.8
26/05:02pm 24.8 23.4 18.7 69 3.9 W 24 52 13 28 1018.1 1016.1 0.0
26/05:00pm 26.0 25.4 18.4 63 4.9 WNW 19 39 10 21 1017.9 1015.8 0.0
26/04:30pm 29.3 29.5 19.3 55 6.6 N 17 24 9 13 1016.6 1014.5 0.0
26/04:00pm 30.6 31.2 18.7 49 7.8 NNE 13 20 7 11 1016.4 1014.3 0.0
26/03:30pm 30.0 29.9 18.8 51 7.4 N 17 24 9 13 1016.5 1014.4 0.0
26/03:00pm 30.8 31.5 18.8 48 7.9 N 13 24 7 13 1016.6 1014.5 0.0
26/02:30pm 31.1 31.9 19.8 51 7.6 NNE 15 20 8 11 1017.0 1014.9 0.0
26/02:00pm 30.0 30.3 19.7 54 6.8 N 17 28 9 15 1017.5 1015.4 0.0
26/01:30pm 29.7 30.2 20.0 56 6.5 NNW 17 22 9 12 1017.7 1015.6 0.0
26/01:00pm 29.2 29.7 20.1 58 6.1 N 17 24 9 13 1018.2 1016.2 0.0
26/12:30pm 29.7 30.0 19.7 55 6.7 NNW 17 24 9 13 1018.9 1016.8 0.0
26/12:00pm 30.4 31.7 20.9 57 6.4 N 15 22 8 12 1019.3 1017.2 0.0
26/11:30am 29.6 30.7 20.5 58 6.1 NNW 15 24 8 13 1019.7 1017.6 0.0
26/11:00am 28.3 28.9 20.3 62 5.3 NNW 17 24 9 13 1020.0 1017.9 0.0
26/10:30am 27.2 28.2 20.3 66 4.6 N 15 22 8 12 1020.3 1018.3 0.0
26/10:00am 27.6 29.4 21.2 68 4.3 N 13 20 7 11 1020.3 1018.3 0.0
26/09:30am 25.9 27.4 20.5 72 3.6 N 13 20 7 11 1020.6 1018.6 0.0
26/09:00am 24.6 25.9 20.1 76 3.0 NNW 13 15 7 8 1020.6 1018.6 0.0
26/08:30am 23.1 24.8 20.1 83 2.0 NW 11 15 6 8 1020.7 1018.7 0.0
26/08:00am 23.1 24.8 20.1 83 2.0 NNW 11 15 6 8 1020.5 1018.5 0.0
26/07:30am 22.7 25.1 20.0 85 1.8 NNE 7 9 4 5 1020.2 1018.2 0.0
26/07:00am 21.5 24.0 20.3 93 0.8 NE 7 11 4 6 1019.8 1017.7 0.0
26/06:30am 19.3 21.6 18.5 95 0.5 E 4 7 2 4 1019.5 1017.4 0.0
26/06:00am 19.2 21.8 18.4 95 0.5 SSE 2 6 1 3 1019.3 1017.2 0.0
26/05:30am 19.4 22.5 18.7 96 0.4 CALM 0 0 0 0 1019.1 1017.0 0.0
26/05:00am 19.4 22.5 18.6 95 0.5 CALM 0 0 0 0 1018.5 1016.5 0.0
26/04:30am 19.3 22.1 18.0 92 0.8 CALM 0 0 0 0 1018.2 1016.2 0.0
26/04:00am 19.7 22.3 18.5 93 0.8 E 2 7 1 4 1018.0 1015.9 0.0
26/03:30am 20.2 22.2 19.2 94 0.6 ESE 7 11 4 6 1017.8 1015.7 0.0
26/03:00am 20.4 23.7 19.1 92 0.8 CALM 0 0 0 0 1017.6 1015.5 0.0
26/02:30am 21.4 25.1 19.9 91 1.0 CALM 0 0 0 0 1017.6 1015.5 0.0
26/02:00am 22.1 25.9 20.2 89 1.2 CALM 0 6 0 3 1017.8 1015.7 0.0
26/01:30am 22.4 25.2 20.5 89 1.3 NE 6 7 3 4 1018.0 1015.9 0.0
26/01:00am 22.3 24.9 20.4 89 1.2 E 7 9 4 5 1018.2 1016.2 0.0
26/12:30am 22.4 24.6 20.5 89 1.3 E 9 11 5 6 1018.2 1016.2 0.0
26/12:00am 23.0 25.6 20.5 86 1.6 ESE 7 11 4 6 1018.2 1016.2 0.0
 
Date/Time
EST
Temp
°C
App
Temp
°C
Dew
Point
Rel
Hum
%
Delta-T
°C
Wind Press
QNH
hPa
Press
MSL
hPa
Rain
since 9 am
mm
Dir
 
Spd
km/h
Gust
km/h
Spd
kts
Gust
kts
25/11:30pm 23.4 26.0 20.5 84 1.9 ENE 7 9 4 5 1017.9 1015.8 0.0
25/11:00pm 23.8 25.5 20.9 84 1.9 N 13 17 7 9 1017.9 1015.8 0.0
25/10:30pm 23.7 26.5 20.4 82 2.2 N 6 11 3 6 1018.0 1015.9 0.0
25/10:00pm 23.8 26.1 19.9 79 2.6 NW 7 11 4 6 1018.1 1016.1 0.0
25/09:30pm 24.2 27.3 19.5 75 3.1 NNE 2 6 1 3 1018.0 1015.9 0.0
25/09:00pm 24.1 26.3 19.2 74 3.2 NW 6 7 3 4 1017.6 1015.5 0.0
25/08:30pm 24.9 27.8 19.0 69 3.8 NW 2 6 1 3 1017.4 1015.3 0.0
25/08:00pm 26.1 27.6 19.0 65 4.6 N 9 15 5 8 1016.9 1014.8 0.0
25/07:30pm 26.4 28.1 19.3 65 4.7 N 9 11 5 6 1016.6 1014.5 0.0
25/07:00pm 27.2 28.9 19.3 62 5.2 NNE 9 13 5 7 1016.4 1014.3 0.0
25/06:30pm 27.9 29.2 19.4 60 5.6 N 11 15 6 8 1015.9 1013.8 0.0
25/06:00pm 28.6 30.1 19.0 56 6.3 N 9 15 5 8 1015.6 1013.5 0.0
25/05:30pm 29.5 30.2 18.9 53 7.0 N 13 17 7 9 1015.4 1013.3 0.0
25/05:00pm 30.5 30.9 18.9 50 7.6 NNW 15 22 8 12 1015.0 1012.9 0.0
25/04:30pm 31.9 32.8 19.2 47 8.4 NW 13 20 7 11 1014.9 1012.8 0.0
25/04:00pm 31.0 31.6 18.7 48 8.1 NNW 13 20 7 11 1014.9 1012.8 0.0
25/03:30pm 30.6 30.5 18.7 49 7.8 NNW 17 24 9 13 1014.9 1012.8 0.0
25/03:00pm 31.7 31.6 18.7 46 8.6 NNW 17 24 9 13 1014.9 1012.8 0.0
25/02:30pm 30.6 30.9 18.7 49 7.8 NW 15 24 8 13 1015.2 1013.1 0.0
25/02:00pm 30.6 31.2 18.7 49 7.8 NW 13 20 7 11 1015.2 1013.1 0.0
25/01:30pm 32.6 34.5 20.5 49 8.2 NW 11 22 6 12 1015.4 1013.3 0.0
25/01:00pm 30.2 30.2 18.9 50 7.4 WNW 17 24 9 13 1015.7 1013.6 0.0
25/12:30pm 29.7 29.8 19.1 53 7.0 NNW 17 28 9 15 1016.1 1014.1 0.0
25/12:00pm 29.1 29.5 19.1 54 6.6 NW 15 24 8 13 1016.7 1014.6 0.0
25/11:30am 29.0 29.3 19.6 57 6.2 NNW 17 26 9 14 1017.2 1015.1 0.0
25/11:00am 29.0 30.2 19.9 58 6.1 NNW 13 26 7 14 1017.6 1015.5 0.0
25/10:30am 27.8 28.2 19.8 61 5.3 NNW 17 24 9 13 1017.9 1015.8 0.0
25/10:00am 26.9 27.2 19.5 64 4.9 NW 17 28 9 15 1018.0 1015.9 0.0
25/09:30am 26.1 26.3 20.2 70 3.9 NNW 19 28 10 15 1018.2 1016.2 0.0
25/09:00am 25.1 24.9 19.7 72 3.5 NNW 20 24 11 13 1018.4 1016.4 0.0
25/08:30am 23.8 23.6 19.7 78 2.7 N 20 26 11 14 1018.3 1016.3 0.0
25/08:00am 23.1 22.9 19.3 79 2.5 NNW 19 24 10 13 1018.2 1016.2 0.0
25/07:30am 22.5 23.2 19.7 84 1.8 N 15 19 8 10 1017.9 1015.8 0.0
25/07:00am 21.4 22.4 19.5 89 1.2 N 13 17 7 9 1017.7 1015.6 0.0
25/06:30am 20.9 21.9 19.4 91 1.0 N 13 17 7 9 1017.5 1015.4 0.0
25/06:00am 20.8 22.4 19.1 90 1.1 N 9 17 5 9 1017.2 1015.1 0.0
25/05:30am 20.8 22.1 19.3 91 1.0 N 11 15 6 8 1016.9 1014.8 0.0
25/05:00am 20.7 21.2 19.2 91 1.0 N 15 20 8 11 1016.6 1014.5 0.0
25/04:30am 20.9 21.1 19.4 91 1.0 N 17 24 9 13 1015.8 1013.7 0.0
25/04:00am 20.8 22.9 19.3 91 1.0 N 7 11 4 6 1015.6 1013.5 0.0
25/03:30am 20.6 22.7 19.3 92 0.8 NW 7 9 4 5 1015.5 1013.4 0.0
25/03:00am 21.0 24.0 19.3 90 1.1 NNW 2 9 1 5 1015.6 1013.5 0.0
25/02:30am 20.9 21.9 19.4 91 1.0 N 13 17 7 9 1015.2 1013.1 0.0
25/02:00am 20.9 22.2 19.4 91 1.0 N 11 15 6 8 1015.2 1013.1 0.0
25/01:30am 20.0 21.8 18.8 93 0.8 N 7 11 4 6 1015.5 1013.4 0.0
25/01:00am 20.2 22.1 19.0 93 0.8 N 7 13 4 7 1015.7 1013.6 0.0
25/12:30am 20.0 21.5 18.8 93 0.8 NNE 9 13 5 7 1015.9 1013.8 0.0
25/12:00am 20.5 22.0 19.0 91 1.0 NNE 9 15 5 8 1016.1 1014.1 0.0
 
Date/Time
EST
Temp
°C
App
Temp
°C
Dew
Point
Rel
Hum
%
Delta-T
°C
Wind Press
QNH
hPa
Press
MSL
hPa
Rain
since 9 am
mm
Dir
 
Spd
km/h
Gust
km/h
Spd
kts
Gust
kts
24/11:30pm 20.9 22.5 19.2 90 1.1 N 9 13 5 7 1016.8 1014.7 0.0
24/11:00pm 20.8 22.6 18.7 88 1.3 NNE 7 11 4 6 1017.0 1014.9 0.0
24/10:30pm 21.5 23.6 18.9 85 1.7 NE 6 9 3 5 1017.0 1014.9 0.0
24/10:00pm 22.0 22.8 19.0 83 1.9 NNE 13 19 7 10 1016.9 1014.8 0.0
24/09:30pm 22.4 23.7 18.4 78 2.6 NE 9 15 5 8 1016.8 1014.7 0.0
24/09:00pm 23.0 23.6 17.7 72 3.4 NE 11 17 6 9 1016.7 1014.6 0.0
24/08:30pm 22.5 23.3 15.8 66 4.1 N 6 15 3 8 1016.8 1014.7 0.0

Other Formats:

Comma delimited format used in spreadsheet applications
http://www.bom.gov.au/fwo/IDQ60801/IDQ60801.94549.axf

JavaScript Object Notation format (JSON) in row-major order
http://www.bom.gov.au/fwo/IDQ60801/IDQ60801.94549.json